Time;durP1;ratioP1;P1;durP2;ratioP2;P2;SDS_P1;SDS_P2;PMS_P1;PMS_P2;Temp;Humidity;BMP_temperature;BMP_pressure;BME280_temperature;BME280_humidity;BME280_pressure;Samples;Min_cycle;Max_cycle;Signal;HPM_P1;HPM_P2
2024/01/24 00:01:13;;;;;;;12.00;11.20;;;11.10;99.90;;;;;;4969045;28;20239;-64
2024/01/24 00:03:40;;;;;;;11.70;11.00;;;11.10;99.90;;;;;;4989210;28;20626;-69
2024/01/24 00:06:07;;;;;;;12.33;11.37;;;11.10;99.90;;;;;;4972825;28;20229;-69
2024/01/24 00:08:34;;;;;;;12.07;10.87;;;11.20;99.90;;;;;;4983693;28;20186;-68
2024/01/24 00:11:01;;;;;;;12.93;11.60;;;11.10;99.90;;;;;;4984677;28;20298;-69
2024/01/24 00:13:29;;;;;;;11.60;10.80;;;11.20;99.90;;;;;;4967412;28;20210;-68
2024/01/24 00:15:56;;;;;;;15.63;11.77;;;11.30;99.90;;;;;;4987242;28;20256;-67
2024/01/24 00:18:23;;;;;;;12.30;11.40;;;11.40;99.90;;;;;;4965979;28;20213;-68
2024/01/24 00:20:51;;;;;;;12.17;11.37;;;11.40;99.90;;;;;;4982662;28;20205;-67
2024/01/24 00:23:18;;;;;;;12.20;11.43;;;11.50;99.90;;;;;;4967314;28;20198;-70
2024/01/24 00:25:44;;;;;;;14.67;12.63;;;11.50;99.90;;;;;;4964124;28;20199;-70
2024/01/24 00:28:15;;;;;;;12.47;11.57;;;11.50;99.90;;;;;;4989474;28;20272;-67
2024/01/24 00:30:43;;;;;;;13.67;11.63;;;11.60;99.90;;;;;;4963066;28;20769;-68
2024/01/24 00:33:11;;;;;;;12.70;11.80;;;11.60;99.90;;;;;;4976399;28;20251;-68
2024/01/24 00:35:38;;;;;;;13.90;12.20;;;11.60;99.90;;;;;;4989767;28;20476;-67
2024/01/24 00:38:05;;;;;;;13.00;11.87;;;11.50;99.90;;;;;;4971468;28;20305;-68
2024/01/24 00:40:32;;;;;;;12.10;11.07;;;11.60;99.90;;;;;;4987022;28;20193;-69
2024/01/24 00:43:00;;;;;;;12.13;11.23;;;11.60;99.90;;;;;;4978389;28;20261;-70
2024/01/24 00:45:27;;;;;;;12.10;11.20;;;11.60;99.90;;;;;;4968022;28;20190;-70
2024/01/24 00:47:54;;;;;;;13.00;11.70;;;11.70;99.90;;;;;;4983719;28;20284;-70
2024/01/24 00:50:21;;;;;;;12.00;11.10;;;11.70;99.90;;;;;;4988453;28;20284;-68
2024/01/24 00:52:51;;;;;;;13.57;12.27;;;11.70;99.90;;;;;;4984421;28;20601;-68
2024/01/24 00:55:19;;;;;;;12.27;11.47;;;11.70;99.90;;;;;;4968048;28;20210;-69
2024/01/24 00:57:46;;;;;;;11.43;10.53;;;11.70;99.90;;;;;;4975380;28;20612;-69
2024/01/24 01:00:14;;;;;;;11.83;10.93;;;11.70;99.90;;;;;;4961393;28;20225;-69
2024/01/24 01:02:43;;;;;;;11.23;10.63;;;11.70;99.90;;;;;;4980264;28;20280;-70
2024/01/24 01:05:10;;;;;;;11.50;10.70;;;11.70;99.90;;;;;;4981309;28;20201;-70
2024/01/24 01:07:37;;;;;;;12.00;10.80;;;11.80;99.90;;;;;;4983608;28;20228;-69
2024/01/24 01:10:05;;;;;;;11.07;10.37;;;11.90;99.90;;;;;;4983598;28;20185;-69
2024/01/24 01:12:32;;;;;;;12.37;10.93;;;11.80;99.90;;;;;;4987430;28;20275;-63
2024/01/24 01:14:59;;;;;;;12.23;11.20;;;11.80;99.90;;;;;;4983274;28;20209;-63
2024/01/24 01:17:26;;;;;;;12.67;11.30;;;11.90;99.90;;;;;;4984007;28;20193;-63
2024/01/24 01:19:53;;;;;;;11.73;10.77;;;11.90;99.90;;;;;;4990098;28;20224;-63
2024/01/24 01:22:20;;;;;;;11.97;11.17;;;11.90;99.90;;;;;;4985100;28;20602;-64
2024/01/24 01:24:48;;;;;;;12.50;11.60;;;11.90;99.90;;;;;;4968754;28;20601;-64
2024/01/24 01:27:15;;;;;;;11.57;10.77;;;11.90;99.90;;;;;;4959856;28;20197;-63
2024/01/24 01:29:42;;;;;;;12.23;11.27;;;12.00;99.90;;;;;;4985480;28;20201;-63
2024/01/24 01:32:09;;;;;;;12.63;11.57;;;12.00;99.90;;;;;;4985662;28;20233;-63
2024/01/24 01:34:36;;;;;;;11.87;11.17;;;12.00;99.90;;;;;;4981806;28;20217;-64
2024/01/24 01:37:03;;;;;;;12.00;11.30;;;12.10;99.90;;;;;;4986261;28;20609;-63
2024/01/24 01:39:30;;;;;;;12.50;11.60;;;12.20;99.90;;;;;;4960328;28;20249;-65
2024/01/24 01:41:57;;;;;;;12.03;11.30;;;12.10;99.90;;;;;;4969225;28;20205;-64
2024/01/24 01:44:24;;;;;;;12.23;11.43;;;12.10;99.90;;;;;;4942616;28;20226;-64
2024/01/24 01:46:51;;;;;;;12.80;11.70;;;12.10;99.90;;;;;;4965700;28;20206;-65
2024/01/24 01:49:19;;;;;;;12.73;11.47;;;12.20;99.90;;;;;;4967806;28;20186;-67
2024/01/24 01:51:47;;;;;;;11.63;10.93;;;12.30;99.90;;;;;;4980505;28;20285;-63
2024/01/24 01:54:15;;;;;;;12.00;11.07;;;12.30;99.90;;;;;;4962532;28;20238;-65
2024/01/24 01:56:42;;;;;;;12.57;11.47;;;12.30;99.90;;;;;;4975275;28;20229;-64
2024/01/24 01:59:09;;;;;;;13.37;12.07;;;12.40;99.90;;;;;;4966305;28;20638;-65
2024/01/24 02:01:38;;;;;;;12.97;11.87;;;12.50;99.90;;;;;;4964870;28;20190;-65
2024/01/24 02:04:06;;;;;;;12.50;11.80;;;12.60;99.90;;;;;;4983810;28;20201;-65
2024/01/24 02:06:33;;;;;;;12.67;11.67;;;12.40;99.90;;;;;;4966308;28;20197;-64
2024/01/24 02:09:00;;;;;;;12.97;12.07;;;12.50;99.90;;;;;;4968059;28;20300;-63
2024/01/24 02:11:27;;;;;;;13.77;12.70;;;12.50;99.90;;;;;;4945874;28;20634;-64
2024/01/24 02:13:59;;;;;;;13.70;12.67;;;12.60;99.90;;;;;;4960163;28;20710;-64
2024/01/24 02:16:26;;;;;;;13.40;12.50;;;12.60;99.90;;;;;;4979744;28;20303;-64
2024/01/24 02:18:53;;;;;;;13.60;12.40;;;12.60;99.90;;;;;;4984180;28;20662;-64
2024/01/24 02:21:20;;;;;;;13.47;12.53;;;12.60;99.90;;;;;;4957911;28;20197;-65
2024/01/24 02:23:47;;;;;;;13.00;12.10;;;12.50;99.90;;;;;;4961192;28;20738;-65
2024/01/24 02:26:15;;;;;;;13.20;12.10;;;12.50;99.90;;;;;;4960157;28;20288;-66
2024/01/24 02:28:42;;;;;;;12.50;11.80;;;12.50;99.90;;;;;;4969755;28;20217;-64
2024/01/24 02:31:09;;;;;;;12.73;11.80;;;12.40;99.90;;;;;;4966310;28;20677;-65
2024/01/24 02:33:36;;;;;;;12.57;11.70;;;12.40;99.90;;;;;;4983234;28;20225;-64
2024/01/24 02:36:04;;;;;;;12.90;11.97;;;12.40;99.90;;;;;;4981234;28;20523;-62
2024/01/24 02:38:30;;;;;;;13.00;12.00;;;12.40;99.90;;;;;;4983717;28;20225;-62
2024/01/24 02:40:57;;;;;;;12.85;11.63;;;12.40;99.90;;;;;;4982501;28;20720;-64
2024/01/24 02:43:24;;;;;;;11.93;11.20;;;12.50;99.90;;;;;;4985933;28;20324;-63
2024/01/24 02:45:51;;;;;;;12.10;11.20;;;12.60;99.90;;;;;;4966576;28;20225;-63
2024/01/24 02:48:18;;;;;;;12.13;11.10;;;12.50;99.90;;;;;;4981116;28;20198;-63
2024/01/24 02:50:48;;;;;;;11.97;10.93;;;12.40;99.90;;;;;;4983700;28;20583;-66
2024/01/24 02:53:15;;;;;;;11.67;10.87;;;12.50;99.90;;;;;;4979091;28;20252;-63
2024/01/24 02:55:42;;;;;;;11.77;10.93;;;12.50;99.90;;;;;;4959611;28;20198;-63
2024/01/24 02:58:08;;;;;;;12.30;11.47;;;12.60;99.90;;;;;;4986218;28;20197;-64
2024/01/24 03:04:36;;;;;;;11.67;10.87;;;12.60;99.90;;;;;;4977426;28;20180;-64
2024/01/24 03:07:04;;;;;;;11.77;11.07;;;12.60;99.90;;;;;;4979126;28;20776;-64
2024/01/24 03:09:31;;;;;;;11.88;11.18;;;12.60;99.90;;;;;;4978225;28;20196;-65
2024/01/24 03:11:58;;;;;;;12.13;11.23;;;12.60;99.90;;;;;;4968240;28;20688;-65
2024/01/24 03:14:25;;;;;;;11.60;10.77;;;12.60;99.90;;;;;;4981472;28;20202;-64
2024/01/24 03:16:52;;;;;;;11.83;11.23;;;12.60;99.90;;;;;;4983591;28;20800;-66
2024/01/24 03:19:19;;;;;;;11.80;11.20;;;12.70;99.90;;;;;;4981178;28;20264;-64
2024/01/24 03:21:47;;;;;;;12.13;11.37;;;12.80;99.90;;;;;;4980756;28;20186;-69
2024/01/24 03:24:15;;;;;;;11.80;11.20;;;12.70;99.90;;;;;;4980167;28;20197;-70
2024/01/24 03:26:42;;;;;;;12.20;11.60;;;12.90;99.90;;;;;;4982699;28;20607;-69
2024/01/24 03:29:09;;;;;;;12.53;11.83;;;12.90;99.90;;;;;;4982036;28;20202;-68
2024/01/24 03:31:36;;;;;;;12.70;11.80;;;13.00;99.90;;;;;;4981203;28;20206;-69
2024/01/24 03:34:03;;;;;;;12.95;12.15;;;13.10;99.90;;;;;;4981036;28;20229;-70
2024/01/24 03:36:30;;;;;;;12.57;11.87;;;13.10;99.90;;;;;;4983384;28;20189;-69
2024/01/24 03:38:57;;;;;;;12.90;12.20;;;13.10;99.90;;;;;;4980942;28;20201;-69
2024/01/24 03:41:24;;;;;;;13.07;12.20;;;13.20;99.90;;;;;;4986822;28;20531;-70
2024/01/24 03:43:51;;;;;;;12.90;12.00;;;13.20;99.90;;;;;;4967694;28;20209;-69
2024/01/24 03:46:19;;;;;;;12.73;12.03;;;13.20;99.90;;;;;;4964930;28;20210;-65
2024/01/24 03:48:47;;;;;;;12.48;11.88;;;13.20;99.90;;;;;;4983641;28;20205;-65
2024/01/24 03:51:14;;;;;;;12.32;11.73;;;13.30;99.90;;;;;;4969702;28;20545;-66
2024/01/24 03:53:41;;;;;;;11.98;11.38;;;13.10;99.90;;;;;;4970259;28;20237;-70
2024/01/24 03:56:08;;;;;;;11.80;11.20;;;12.90;99.90;;;;;;4970465;28;20259;-65
2024/01/24 03:58:36;;;;;;;12.27;11.37;;;12.80;99.90;;;;;;4986655;28;20308;-64
2024/01/24 04:01:04;;;;;;;11.50;10.80;;;12.70;99.90;;;;;;4986057;28;20205;-64
2024/01/24 04:03:31;;;;;;;11.40;10.80;;;12.80;99.90;;;;;;4985039;28;20288;-65
2024/01/24 04:05:58;;;;;;;11.50;10.70;;;12.70;99.90;;;;;;4982316;28;20289;-64
2024/01/24 04:08:25;;;;;;;11.73;10.93;;;12.70;99.90;;;;;;4964962;28;20289;-67
2024/01/24 04:10:52;;;;;;;11.20;10.50;;;12.70;99.90;;;;;;4977101;28;20310;-64
2024/01/24 04:13:19;;;;;;;10.57;10.07;;;12.60;99.90;;;;;;4986411;28;20198;-64
2024/01/24 04:15:46;;;;;;;10.20;9.70;;;12.50;99.90;;;;;;4968431;28;20267;-62
2024/01/24 04:18:13;;;;;;;10.70;10.13;;;12.50;99.90;;;;;;4989572;28;20285;-63
2024/01/24 04:20:41;;;;;;;10.80;10.20;;;12.60;99.90;;;;;;4975719;28;20241;-68
2024/01/24 04:23:08;;;;;;;10.10;9.60;;;12.60;99.90;;;;;;4968478;28;20198;-68
2024/01/24 04:25:35;;;;;;;9.50;9.00;;;12.30;99.90;;;;;;4982361;28;20249;-68
2024/01/24 04:28:02;;;;;;;10.90;10.20;;;12.30;99.90;;;;;;4967757;28;20200;-65
2024/01/24 04:30:29;;;;;;;11.27;10.67;;;12.40;99.90;;;;;;4987062;28;20287;-65
2024/01/24 04:32:56;;;;;;;12.23;11.53;;;12.50;99.90;;;;;;4984164;28;20198;-69
2024/01/24 04:35:23;;;;;;;11.63;11.03;;;12.50;99.90;;;;;;4984337;28;20210;-70
2024/01/24 04:37:51;;;;;;;12.47;11.60;;;12.40;99.90;;;;;;4988769;28;20206;-69
2024/01/24 04:40:18;;;;;;;12.50;11.80;;;12.50;99.90;;;;;;4984447;28;20213;-68
2024/01/24 04:42:45;;;;;;;12.67;11.97;;;12.70;99.90;;;;;;4967719;28;20425;-69
2024/01/24 04:45:15;;;;;;;13.80;12.90;;;12.80;99.90;;;;;;4986340;28;20517;-69
2024/01/24 04:47:45;;;;;;;13.43;12.63;;;12.70;99.90;;;;;;4983194;28;20554;-68
2024/01/24 04:50:13;;;;;;;14.43;13.53;;;12.70;99.90;;;;;;4966245;28;20205;-67
2024/01/24 04:52:40;;;;;;;13.57;12.77;;;12.70;99.90;;;;;;4984630;28;20190;-68
2024/01/24 04:55:11;;;;;;;13.90;13.00;;;12.70;99.90;;;;;;4966818;28;20269;-69
2024/01/24 04:57:39;;;;;;;14.53;13.60;;;12.70;99.90;;;;;;4994875;28;20197;-68
2024/01/24 05:00:11;;;;;;;13.90;13.03;;;12.70;99.90;;;;;;4984429;28;20282;-68
2024/01/24 05:02:39;;;;;;;14.20;13.20;;;12.70;99.90;;;;;;4967447;28;20186;-67
2024/01/24 05:05:07;;;;;;;13.63;12.82;;;12.60;99.90;;;;;;4985300;28;20520;-70
2024/01/24 05:07:34;;;;;;;13.97;13.17;;;12.50;99.90;;;;;;4984379;28;20548;-68
2024/01/24 05:10:06;;;;;;;13.70;12.90;;;12.50;99.90;;;;;;4984546;28;20201;-69
2024/01/24 05:12:33;;;;;;;13.60;12.80;;;12.60;99.90;;;;;;4985990;28;20201;-67
2024/01/24 05:15:00;;;;;;;13.30;12.60;;;12.60;99.90;;;;;;4972886;28;20190;-77
2024/01/24 05:17:27;;;;;;;13.77;13.07;;;12.60;99.90;;;;;;4983011;28;20260;-68
2024/01/24 05:19:56;;;;;;;14.13;13.23;;;12.50;99.90;;;;;;4985844;28;20237;-69
2024/01/24 05:22:23;;;;;;;14.07;13.27;;;12.50;99.90;;;;;;4963856;28;20202;-69
2024/01/24 05:24:50;;;;;;;14.40;13.40;;;12.50;99.90;;;;;;4977148;28;20221;-68
2024/01/24 05:27:18;;;;;;;14.40;13.60;;;12.50;99.90;;;;;;4983337;28;20258;-68
2024/01/24 05:29:46;;;;;;;14.05;13.25;;;12.50;99.90;;;;;;4987382;28;20189;-68
2024/01/24 05:32:13;;;;;;;14.13;13.30;;;12.50;99.90;;;;;;4988069;28;20312;-68
2024/01/24 05:34:40;;;;;;;14.63;13.63;;;12.50;99.90;;;;;;4975427;28;20814;-69
2024/01/24 05:37:08;;;;;;;14.60;13.60;;;12.60;99.90;;;;;;4960093;28;20607;-69
2024/01/24 05:39:35;;;;;;;14.32;13.52;;;12.60;99.90;;;;;;4965646;28;20256;-69
2024/01/24 05:42:02;;;;;;;14.77;13.77;;;12.70;99.90;;;;;;4983222;28;20191;-64
2024/01/24 05:44:29;;;;;;;14.57;13.57;;;12.60;99.90;;;;;;4981966;28;20670;-64
2024/01/24 05:46:56;;;;;;;14.40;13.32;;;12.60;99.90;;;;;;4986268;28;20193;-65
2024/01/24 05:49:23;;;;;;;14.73;13.63;;;12.60;99.90;;;;;;4969219;28;20225;-65
2024/01/24 05:51:50;;;;;;;15.33;14.10;;;12.50;99.90;;;;;;4989717;28;20267;-70
2024/01/24 05:54:17;;;;;;;15.07;13.87;;;12.60;99.90;;;;;;4986537;28;20269;-70
2024/01/24 05:56:44;;;;;;;14.97;13.87;;;12.70;99.90;;;;;;4973272;28;20262;-70
2024/01/24 05:59:11;;;;;;;15.80;14.63;;;12.60;99.90;;;;;;4981659;28;20651;-70
2024/01/24 06:01:42;;;;;;;15.80;14.63;;;12.60;99.90;;;;;;4986347;28;20529;-69
2024/01/24 06:04:09;;;;;;;15.73;14.40;;;12.60;99.90;;;;;;4971291;28;20218;-70
2024/01/24 06:06:37;;;;;;;14.77;13.87;;;12.50;99.90;;;;;;4972816;28;20276;-69
2024/01/24 06:09:08;;;;;;;15.10;14.10;;;12.50;99.90;;;;;;4988839;28;20717;-69
2024/01/24 06:11:37;;;;;;;15.60;14.37;;;12.60;99.90;;;;;;4955124;28;20194;-70
2024/01/24 06:14:04;;;;;;;14.93;13.87;;;12.60;99.90;;;;;;4970326;28;20280;-70
2024/01/24 06:16:31;;;;;;;15.77;14.50;;;12.60;99.90;;;;;;4987397;28;20585;-70
2024/01/24 06:18:58;;;;;;;15.07;14.10;;;12.60;99.90;;;;;;4987757;28;20356;-69
2024/01/24 06:21:25;;;;;;;15.43;14.13;;;12.60;99.90;;;;;;4987398;28;20205;-69
2024/01/24 06:23:52;;;;;;;15.17;14.00;;;12.60;99.90;;;;;;4983866;28;20232;-69
2024/01/24 06:26:19;;;;;;;14.93;13.70;;;12.50;99.90;;;;;;4970396;28;20721;-69
2024/01/24 06:28:46;;;;;;;16.80;15.20;;;12.50;99.90;;;;;;4986654;28;20194;-68
2024/01/24 06:31:14;;;;;;;15.60;14.50;;;12.50;99.90;;;;;;4970981;28;20214;-69
2024/01/24 06:33:41;;;;;;;16.37;14.90;;;12.50;99.90;;;;;;4958589;28;20197;-70
2024/01/24 06:36:09;;;;;;;16.77;15.17;;;12.20;99.90;;;;;;4979921;28;20191;-68
2024/01/24 06:38:35;;;;;;;16.47;14.87;;;12.00;99.90;;;;;;4965615;28;20300;-69
2024/01/24 06:41:03;;;;;;;18.40;15.40;;;11.80;99.90;;;;;;4963010;28;20206;-70
2024/01/24 06:43:30;;;;;;;19.10;15.20;;;11.70;99.90;;;;;;4999985;28;20239;-69
2024/01/24 06:45:57;;;;;;;17.03;14.67;;;11.70;99.90;;;;;;5007308;28;20713;-70
2024/01/24 06:48:24;;;;;;;15.37;14.27;;;11.60;99.90;;;;;;4970306;28;20201;-70
2024/01/24 06:50:53;;;;;;;17.00;14.97;;;11.80;99.90;;;;;;4970615;28;20593;-70
2024/01/24 06:53:21;;;;;;;19.47;15.20;;;11.70;99.90;;;;;;4965532;28;20242;-65
2024/01/24 06:55:47;;;;;;;18.67;14.90;;;11.70;99.90;;;;;;4985280;28;20253;-65
2024/01/24 06:58:15;;;;;;;16.13;14.60;;;11.70;99.90;;;;;;4987067;28;20276;-65
2024/01/24 07:00:41;;;;;;;18.33;15.17;;;11.80;99.90;;;;;;4965615;28;20205;-65
2024/01/24 07:03:09;;;;;;;23.43;15.00;;;11.80;99.90;;;;;;4988468;28;20201;-69
2024/01/24 07:05:36;;;;;;;22.87;15.90;;;11.90;99.90;;;;;;4970851;28;20190;-69
2024/01/24 07:08:03;;;;;;;19.30;15.87;;;11.80;99.90;;;;;;4961776;28;20230;-70
2024/01/24 07:10:30;;;;;;;16.70;15.13;;;11.80;99.90;;;;;;4981676;28;20602;-70
2024/01/24 07:13:00;;;;;;;17.40;15.47;;;11.80;99.90;;;;;;4986393;28;20268;-68
2024/01/24 07:15:27;;;;;;;17.27;15.40;;;11.90;99.90;;;;;;4963992;28;20666;-73
2024/01/24 07:17:55;;;;;;;17.83;15.90;;;12.00;99.90;;;;;;4970312;28;20553;-69
2024/01/24 07:20:22;;;;;;;22.03;15.83;;;12.00;99.90;;;;;;4970221;28;20218;-68
2024/01/24 07:22:50;;;;;;;18.10;15.93;;;12.00;99.90;;;;;;4964918;28;20293;-71
2024/01/24 07:25:20;;;;;;;18.00;16.20;;;11.90;99.90;;;;;;4981796;28;20212;-70
2024/01/24 07:27:48;;;;;;;18.60;15.63;;;11.90;99.90;;;;;;4984597;28;20212;-70
2024/01/24 07:30:16;;;;;;;20.53;16.10;;;12.00;99.90;;;;;;4967074;28;20736;-70
2024/01/24 07:32:43;;;;;;;21.33;16.03;;;11.90;99.90;;;;;;4967801;28;20217;-70
2024/01/24 07:35:11;;;;;;;19.93;16.97;;;11.90;99.90;;;;;;4949284;28;20234;-70
2024/01/24 07:37:38;;;;;;;19.90;16.00;;;11.90;99.90;;;;;;4954619;28;20198;-70
2024/01/24 07:40:05;;;;;;;19.27;16.50;;;11.90;99.90;;;;;;4972507;28;20593;-70
2024/01/24 07:42:32;;;;;;;17.93;16.13;;;11.80;99.90;;;;;;4993102;28;20207;-70
2024/01/24 07:45:00;;;;;;;18.80;17.00;;;11.80;99.90;;;;;;4991232;28;20193;-70
2024/01/24 07:47:27;;;;;;;19.07;16.40;;;11.80;99.90;;;;;;4990705;28;20190;-69
2024/01/24 07:49:54;;;;;;;20.83;16.90;;;11.80;99.90;;;;;;4973246;28;20308;-70
2024/01/24 07:52:21;;;;;;;20.67;17.70;;;11.60;99.90;;;;;;4989887;28;20206;-70
2024/01/24 07:55:03;;;;;;;18.40;16.53;;;11.50;99.90;;;;;;4972389;28;20575;-70
2024/01/24 07:57:30;;;;;;;20.53;16.33;;;11.40;99.90;;;;;;4977036;28;20202;-70
2024/01/24 07:59:57;;;;;;;18.23;16.50;;;11.20;99.90;;;;;;4963173;28;20300;-70
2024/01/24 08:02:25;;;;;;;17.70;15.83;;;10.90;99.90;;;;;;4985305;28;20599;-70
2024/01/24 08:04:52;;;;;;;19.83;16.60;;;10.80;99.90;;;;;;4970435;28;20206;-70
2024/01/24 08:07:19;;;;;;;25.17;16.77;;;10.70;99.90;;;;;;4969645;28;20264;-69
2024/01/24 08:09:46;;;;;;;18.27;15.90;;;10.70;99.90;;;;;;4967043;28;20192;-70
2024/01/24 08:12:15;;;;;;;17.07;15.63;;;10.70;99.90;;;;;;4990747;28;20205;-70
2024/01/24 08:14:42;;;;;;;20.73;16.70;;;10.70;99.90;;;;;;4964195;28;20205;-70
2024/01/24 08:17:13;;;;;;;25.47;16.27;;;10.70;99.90;;;;;;4958070;28;20329;-69
2024/01/24 08:19:40;;;;;;;20.97;16.10;;;10.60;99.90;;;;;;4972889;28;20193;-69
2024/01/24 08:22:07;;;;;;;26.37;17.00;;;10.60;99.90;;;;;;4965581;28;20204;-69
2024/01/24 08:24:35;;;;;;;26.13;16.17;;;10.70;99.90;;;;;;4978673;28;20203;-70
2024/01/24 08:27:02;;;;;;;21.77;17.10;;;10.80;99.90;;;;;;4986378;28;20198;-70
2024/01/24 08:29:29;;;;;;;21.97;16.47;;;11.10;99.90;;;;;;4973177;28;20617;-70
2024/01/24 08:32:04;;;;;;;26.57;16.47;;;11.30;99.90;;;;;;4955400;28;20220;-70
2024/01/24 08:34:32;;;;;;;25.90;16.90;;;11.20;99.90;;;;;;4971534;28;20995;-70
2024/01/24 08:36:59;;;;;;;20.63;16.23;;;11.20;99.90;;;;;;4979176;28;20711;-70
2024/01/24 08:39:26;;;;;;;22.50;16.87;;;11.20;99.90;;;;;;4989906;28;20204;-69
2024/01/24 08:41:53;;;;;;;22.93;16.53;;;11.30;99.90;;;;;;4972500;28;20706;-70
2024/01/24 08:44:20;;;;;;;24.03;16.63;;;11.40;99.90;;;;;;4990722;28;20197;-69
2024/01/24 08:46:49;;;;;;;32.80;16.47;;;11.40;99.90;;;;;;4990951;28;20182;-70
2024/01/24 08:49:16;;;;;;;26.93;16.53;;;11.40;99.90;;;;;;4990909;28;20194;-70
2024/01/24 08:51:44;;;;;;;26.10;17.27;;;11.40;99.90;;;;;;4959866;28;20203;-69
2024/01/24 08:54:11;;;;;;;27.17;17.37;;;11.50;99.90;;;;;;4973157;28;20241;-70
2024/01/24 08:56:39;;;;;;;36.93;18.70;;;11.70;99.90;;;;;;4973243;28;20264;-68
2024/01/24 08:59:06;;;;;;;28.60;17.07;;;11.80;99.90;;;;;;4966510;28;20202;-69
2024/01/24 09:01:33;;;;;;;18.80;16.40;;;11.90;99.90;;;;;;4984337;28;20241;-70
2024/01/24 09:04:00;;;;;;;28.13;17.20;;;12.10;99.90;;;;;;4971710;28;20655;-69
2024/01/24 09:06:28;;;;;;;24.20;17.17;;;12.00;99.90;;;;;;4967734;28;20193;-70
2024/01/24 09:08:55;;;;;;;37.33;18.27;;;11.90;99.90;;;;;;4972439;28;20201;-70
2024/01/24 09:11:22;;;;;;;29.07;18.17;;;12.00;99.90;;;;;;4947097;28;20194;-70
2024/01/24 09:14:00;;;;;;;30.87;17.97;;;11.90;99.90;;;;;;4951326;28;20304;-65
2024/01/24 09:16:27;;;;;;;27.93;17.83;;;11.80;99.90;;;;;;4971905;28;20209;-65
2024/01/24 09:18:54;;;;;;;26.70;17.20;;;11.70;99.90;;;;;;4986689;28;20197;-64
2024/01/24 09:21:22;;;;;;;24.53;17.43;;;11.70;99.90;;;;;;4986535;28;20469;-70
2024/01/24 09:23:51;;;;;;;24.73;17.30;;;11.70;99.90;;;;;;4989642;28;20275;-69
2024/01/24 09:26:18;;;;;;;29.70;16.93;;;11.80;99.90;;;;;;4972895;28;20202;-69
2024/01/24 09:28:45;;;;;;;25.50;16.87;;;11.90;99.90;;;;;;4959733;28;20293;-69
2024/01/24 09:31:12;;;;;;;28.23;18.43;;;12.10;99.90;;;;;;4963876;28;20201;-68
2024/01/24 09:33:39;;;;;;;24.33;17.77;;;12.40;99.90;;;;;;4986310;28;20666;-69
2024/01/24 09:36:06;;;;;;;23.60;17.13;;;12.60;99.90;;;;;;4953110;28;20575;-69
2024/01/24 09:38:33;;;;;;;27.25;17.83;;;12.50;99.90;;;;;;4989011;28;20221;-69
2024/01/24 09:41:08;;;;;;;23.88;17.73;;;12.40;99.90;;;;;;4983951;28;20753;-70
2024/01/24 09:43:38;;;;;;;23.63;17.17;;;12.10;99.90;;;;;;4962951;28;20193;-70
2024/01/24 09:46:12;;;;;;;36.70;17.93;;;11.90;99.90;;;;;;4964512;28;20197;-68
2024/01/24 09:48:41;;;;;;;20.33;16.40;;;11.80;99.90;;;;;;4985772;28;20270;-69
2024/01/24 09:51:09;;;;;;;23.47;17.17;;;11.80;99.90;;;;;;4983061;28;20283;-68
2024/01/24 09:53:38;;;;;;;22.93;17.00;;;11.70;99.90;;;;;;4982872;28;20243;-69
2024/01/24 09:56:07;;;;;;;24.07;16.63;;;11.80;99.90;;;;;;4988856;28;20212;-70
2024/01/24 09:58:34;;;;;;;20.90;16.33;;;11.80;99.90;;;;;;4959793;28;20532;-69
2024/01/24 10:01:05;;;;;;;28.17;16.93;;;11.80;99.90;;;;;;4950656;28;20221;-69
2024/01/24 10:03:32;;;;;;;22.50;16.27;;;11.80;99.90;;;;;;4981772;28;20221;-69
2024/01/24 10:06:08;;;;;;;20.13;16.47;;;11.80;99.90;;;;;;4982382;28;20235;-69
2024/01/24 10:08:35;;;;;;;20.80;16.23;;;11.80;99.90;;;;;;4988616;28;20193;-69
2024/01/24 10:11:02;;;;;;;21.57;16.43;;;11.80;99.90;;;;;;4954405;28;20227;-69
2024/01/24 10:13:30;;;;;;;30.50;17.47;;;11.80;99.90;;;;;;4986964;28;20566;-69
2024/01/24 10:16:04;;;;;;;27.73;17.03;;;11.80;99.90;;;;;;4969818;28;20284;-69
2024/01/24 10:18:35;;;;;;;24.57;16.40;;;11.80;99.90;;;;;;4969242;28;20657;-70
2024/01/24 10:21:04;;;;;;;23.43;16.33;;;11.80;99.90;;;;;;4987862;28;20221;-70
2024/01/24 10:23:33;;;;;;;23.10;17.00;;;11.70;99.90;;;;;;4968612;28;20197;-69
2024/01/24 10:26:00;;;;;;;23.03;16.87;;;11.70;99.90;;;;;;4984436;28;20201;-69
2024/01/24 10:28:27;;;;;;;27.03;16.57;;;11.60;99.90;;;;;;4970530;28;20195;-69
2024/01/24 10:30:54;;;;;;;23.53;16.60;;;11.60;99.90;;;;;;4968731;28;20907;-68
2024/01/24 10:33:22;;;;;;;20.93;16.90;;;11.60;99.90;;;;;;4987683;28;20228;-68
2024/01/24 10:35:50;;;;;;;29.00;16.73;;;11.70;99.90;;;;;;4963339;28;20261;-68
2024/01/24 10:38:24;;;;;;;17.87;15.93;;;11.80;99.90;;;;;;4959107;28;20217;-68
2024/01/24 10:40:59;;;;;;;22.83;16.53;;;11.80;99.90;;;;;;4986576;28;20404;-69
2024/01/24 10:43:26;;;;;;;23.97;17.63;;;12.00;99.90;;;;;;4978255;28;20207;-69
2024/01/24 10:45:54;;;;;;;27.40;17.50;;;11.90;99.90;;;;;;4963548;28;20206;-69
2024/01/24 10:48:21;;;;;;;21.13;16.67;;;12.10;99.90;;;;;;4968326;28;20213;-69
2024/01/24 10:50:51;;;;;;;24.70;16.53;;;12.10;99.90;;;;;;4969659;28;20224;-69
2024/01/24 10:53:20;;;;;;;21.37;16.77;;;12.00;99.90;;;;;;4987702;28;20361;-69
2024/01/24 10:55:50;;;;;;;25.80;17.43;;;12.20;99.90;;;;;;4969454;28;20217;-70
2024/01/24 10:58:18;;;;;;;24.17;16.90;;;12.30;99.90;;;;;;4976104;28;20300;-69
2024/01/24 11:00:46;;;;;;;23.63;17.07;;;12.20;99.90;;;;;;4989852;28;20205;-67
2024/01/24 11:03:14;;;;;;;24.00;16.27;;;12.20;99.90;;;;;;4990948;28;20546;-68
2024/01/24 11:05:48;;;;;;;31.57;17.47;;;12.10;99.90;;;;;;4984671;28;20280;-69
2024/01/24 11:08:26;;;;;;;23.17;16.63;;;12.20;99.90;;;;;;4970866;28;20189;-69
2024/01/24 11:11:13;;;;;;;29.03;17.13;;;12.20;99.90;;;;;;4986619;28;20185;-68
2024/01/24 11:13:41;;;;;;;19.27;16.10;;;12.30;99.90;;;;;;4990849;28;20190;-68
2024/01/24 11:16:34;;;;;;;23.37;16.57;;;12.40;99.90;;;;;;4992184;28;20198;-69
2024/01/24 11:19:22;;;;;;;26.20;17.77;;;12.20;99.90;;;;;;4992175;28;20197;-67
2024/01/24 11:21:50;;;;;;;24.17;17.70;;;12.10;99.90;;;;;;4973644;28;20224;-69
2024/01/24 11:24:43;;;;;;;26.77;17.13;;;12.10;99.90;;;;;;4980298;28;20244;-69
2024/01/24 11:27:27;;;;;;;21.40;16.80;;;12.10;99.90;;;;;;4952936;28;20206;-68
2024/01/24 11:29:55;;;;;;;27.10;17.53;;;12.10;99.90;;;;;;4983261;28;20689;-69
2024/01/24 11:32:44;;;;;;;29.30;17.17;;;12.20;99.90;;;;;;4987557;28;20198;-68
2024/01/24 11:35:36;;;;;;;26.83;17.07;;;12.30;99.90;;;;;;4967113;28;20752;-69
2024/01/24 11:38:08;;;;;;;27.15;17.55;;;12.60;99.90;;;;;;4997203;28;20550;-69
2024/01/24 11:40:52;;;;;;;28.20;18.13;;;12.20;99.90;;;;;;4964297;28;20237;-69
2024/01/24 11:43:33;;;;;;;21.13;17.07;;;12.20;99.90;;;;;;4991565;28;20296;-64
2024/01/24 11:46:08;;;;;;;27.53;17.67;;;12.20;99.90;;;;;;4964457;28;20205;-65
2024/01/24 11:48:38;;;;;;;20.63;17.17;;;12.30;99.90;;;;;;4989345;28;20200;-64
2024/01/24 11:51:11;;;;;;;21.70;18.17;;;12.50;99.90;;;;;;4957609;28;20193;-64
2024/01/24 11:53:38;;;;;;;22.43;17.30;;;12.40;99.90;;;;;;4967732;28;20465;-64
2024/01/24 11:56:07;;;;;;;21.10;17.80;;;12.20;99.90;;;;;;4973858;28;20205;-64
2024/01/24 11:58:34;;;;;;;20.33;17.70;;;12.10;99.90;;;;;;4980941;28;20733;-64
2024/01/24 12:01:06;;;;;;;24.43;17.23;;;12.00;99.90;;;;;;4974994;28;20222;-64
2024/01/24 12:03:34;;;;;;;24.03;17.63;;;11.90;99.90;;;;;;4966396;28;20700;-65
2024/01/24 12:06:01;;;;;;;21.40;17.37;;;11.80;99.90;;;;;;4988780;28;20233;-65
2024/01/24 12:08:29;;;;;;;25.73;17.33;;;11.80;99.90;;;;;;4971993;28;20710;-66
2024/01/24 12:10:56;;;;;;;18.93;16.90;;;11.70;99.90;;;;;;4988741;28;20229;-65
2024/01/24 12:13:26;;;;;;;21.20;16.77;;;11.70;99.90;;;;;;4972094;28;20198;-63
2024/01/24 12:15:58;;;;;;;24.47;16.80;;;11.70;99.90;;;;;;4990480;28;20638;-63
2024/01/24 12:18:27;;;;;;;31.07;17.67;;;11.60;99.90;;;;;;4964718;28;20740;-63
2024/01/24 12:20:55;;;;;;;24.67;16.67;;;11.60;99.90;;;;;;4979349;28;20272;-66
2024/01/24 12:23:27;;;;;;;25.63;17.33;;;11.60;99.90;;;;;;4972214;28;20744;-62
2024/01/24 12:25:54;;;;;;;21.50;16.73;;;11.60;99.90;;;;;;4983611;28;20194;-66
2024/01/24 12:28:22;;;;;;;21.93;16.40;;;11.70;99.90;;;;;;4959935;28;20199;-63
2024/01/24 12:30:53;;;;;;;26.00;17.07;;;11.70;99.90;;;;;;4987347;28;20232;-64
2024/01/24 12:33:21;;;;;;;26.47;17.40;;;11.70;99.90;;;;;;4971352;28;20227;-63
2024/01/24 12:35:49;;;;;;;21.97;17.03;;;11.70;99.90;;;;;;4989729;28;20197;-66
2024/01/24 12:38:17;;;;;;;36.60;17.70;;;11.60;99.90;;;;;;4973124;28;20285;-64